createdAt,value
2023-02-01T00:00:54.303Z,31.35
2023-02-01T00:03:56.653Z,34.10
2023-02-01T00:06:58.916Z,31.15
2023-02-01T00:10:01.158Z,33.35
2023-02-01T00:13:03.491Z,32.55
2023-02-01T00:16:11.249Z,33.67
2023-02-01T00:19:15.370Z,34.88
2023-02-01T00:22:17.611Z,30.92
2023-02-01T00:25:19.843Z,32.17
2023-02-01T00:28:22.137Z,34.05
2023-02-01T00:31:24.550Z,34.10
2023-02-01T00:34:26.816Z,33.60
2023-02-01T00:37:29.028Z,34.63
2023-02-01T00:40:31.247Z,34.53
2023-02-01T00:43:34.191Z,33.40
2023-02-01T00:46:36.530Z,37.05
2023-02-01T00:49:38.798Z,32.42
2023-02-01T00:52:40.967Z,37.05
2023-02-01T00:55:46.704Z,34.92
2023-02-01T00:58:49.109Z,36.88
2023-02-01T01:01:51.701Z,36.35
2023-02-01T01:04:54.001Z,36.58
2023-02-01T01:07:56.183Z,38.13
2023-02-01T01:10:58.402Z,35.20
2023-02-01T01:14:01.554Z,35.50
2023-02-01T01:17:03.649Z,34.50
2023-02-01T01:20:06.546Z,35.47
2023-02-01T01:23:09.951Z,35.30
2023-02-01T01:26:19.680Z,35.55
2023-02-01T01:29:21.923Z,34.92
2023-02-01T01:32:24.114Z,34.17
2023-02-01T01:35:26.467Z,37.45
2023-02-01T01:38:28.670Z,34.00
2023-02-01T01:41:32.663Z,35.15
2023-02-01T01:45:00.948Z,35.70
2023-02-01T01:48:16.239Z,35.42
2023-02-01T01:51:21.654Z,35.38
2023-02-01T01:54:30.440Z,33.78
2023-02-01T01:57:38.470Z,36.83
2023-02-01T02:00:41.097Z,36.25
2023-02-01T02:03:48.866Z,36.00
2023-02-01T02:07:02.807Z,35.45
2023-02-01T02:10:11.780Z,34.47
2023-02-01T02:13:16.001Z,34.05
2023-02-01T02:16:41.686Z,35.40
2023-02-01T02:20:14.817Z,34.90
2023-02-01T02:23:29.051Z,35.33
2023-02-01T02:26:44.407Z,34.92
2023-02-01T02:30:10.760Z,36.13
2023-02-01T02:33:47.844Z,32.13
2023-02-01T02:37:15.098Z,36.80
2023-02-01T02:40:56.650Z,36.60
2023-02-01T02:44:18.648Z,32.10
2023-02-01T02:47:34.969Z,34.78
2023-02-01T02:51:02.170Z,36.63
2023-02-01T02:54:40.951Z,34.38
2023-02-01T02:58:03.664Z,32.45
2023-02-01T03:01:25.057Z,32.78
2023-02-01T03:04:27.642Z,32.80
2023-02-01T03:08:18.241Z,33.50
2023-02-01T03:11:21.839Z,33.20
2023-02-01T03:14:27.680Z,34.35
2023-02-01T03:17:37.923Z,31.83
2023-02-01T03:20:44.835Z,29.30
2023-02-01T03:23:49.226Z,31.42
2023-02-01T03:26:58.819Z,32.67
2023-02-01T03:30:20.494Z,34.25
2023-02-01T03:33:25.976Z,31.75
2023-02-01T03:36:59.464Z,32.60
2023-02-01T03:40:06.563Z,33.17
2023-02-01T03:43:15.552Z,32.80
2023-02-01T03:46:26.061Z,34.72
2023-02-01T03:49:33.643Z,33.08
2023-02-01T03:52:43.506Z,32.67
2023-02-01T03:55:46.593Z,31.63
2023-02-01T03:59:00.130Z,31.05
2023-02-01T04:02:06.622Z,32.75
2023-02-01T04:05:09.800Z,31.85
2023-02-01T04:08:13.738Z,36.28
2023-02-01T04:11:16.401Z,35.72
2023-02-01T04:14:18.736Z,34.50
2023-02-01T04:17:20.940Z,36.45
2023-02-01T04:20:23.506Z,33.83
2023-02-01T04:23:25.945Z,34.60
2023-02-01T04:26:28.211Z,34.10
2023-02-01T04:29:30.482Z,33.88
2023-02-01T04:32:32.610Z,30.73
2023-02-01T04:35:35.198Z,33.22
2023-02-01T04:38:37.632Z,34.00
2023-02-01T04:41:39.797Z,30.75
2023-02-01T04:44:43.065Z,35.25
2023-02-01T04:47:45.314Z,34.67
2023-02-01T04:50:49.566Z,33.60
2023-02-01T04:53:51.678Z,35.38
2023-02-01T04:56:53.895Z,36.03
2023-02-01T04:59:56.343Z,33.05
2023-02-01T05:02:58.448Z,34.15
2023-02-01T05:06:01.335Z,35.33
2023-02-01T05:09:03.479Z,34.08
2023-02-01T05:12:24.519Z,32.90
2023-02-01T05:15:26.692Z,35.28
2023-02-01T05:18:28.875Z,33.50
2023-02-01T05:21:31.031Z,30.17
2023-02-01T05:24:33.204Z,33.88
2023-02-01T05:27:35.402Z,35.05
2023-02-01T05:30:39.323Z,32.08
2023-02-01T05:33:43.505Z,34.35
2023-02-01T05:36:45.787Z,33.78
2023-02-01T05:39:48.089Z,33.58
2023-02-01T05:42:50.274Z,35.50
2023-02-01T05:45:55.790Z,33.72
2023-02-01T05:48:58.108Z,33.17
2023-02-01T05:52:00.811Z,35.47
2023-02-01T05:55:03.001Z,34.72
2023-02-01T05:58:05.900Z,33.65
2023-02-01T06:01:08.197Z,32.45
2023-02-01T06:04:10.503Z,34.63
2023-02-01T06:07:12.717Z,33.95
2023-02-01T06:10:15.002Z,35.60
2023-02-01T06:13:17.158Z,33.40
2023-02-01T06:16:19.301Z,32.25
2023-02-01T06:19:21.727Z,31.52
2023-02-01T06:22:24.255Z,37.72
2023-02-01T06:25:26.355Z,32.67
2023-02-01T06:28:29.424Z,30.77
2023-02-01T06:31:33.259Z,31.35
2023-02-01T06:34:35.685Z,36.92
2023-02-01T06:37:38.803Z,35.17
2023-02-01T06:40:43.261Z,33.40
2023-02-01T06:43:46.679Z,32.22
2023-02-01T06:46:48.879Z,36.03
2023-02-01T06:49:51.086Z,37.40
2023-02-01T06:52:53.694Z,34.15
2023-02-01T06:55:57.717Z,32.28
2023-02-01T06:58:59.824Z,36.95
2023-02-01T07:02:02.049Z,37.58
2023-02-01T07:05:04.358Z,36.45
2023-02-01T07:08:06.596Z,35.22
2023-02-01T07:11:11.684Z,36.65
2023-02-01T07:14:14.236Z,33.97
2023-02-01T07:17:16.467Z,34.25
2023-02-01T07:20:18.730Z,33.95
2023-02-01T07:23:21.349Z,33.63
2023-02-01T07:26:23.702Z,37.13
2023-02-01T07:29:25.862Z,38.25
2023-02-01T07:32:28.018Z,37.80
2023-02-01T07:35:30.496Z,33.25
2023-02-01T07:38:32.851Z,37.60
2023-02-01T07:41:35.385Z,38.35
2023-02-01T07:44:37.527Z,38.88
2023-02-01T07:47:39.820Z,36.38
2023-02-01T07:50:41.976Z,36.90
2023-02-01T07:53:45.268Z,40.60
2023-02-01T07:56:47.484Z,39.83
2023-02-01T08:00:08.181Z,40.30
2023-02-01T08:03:17.140Z,41.03
2023-02-01T08:06:20.772Z,40.33
2023-02-01T08:09:23.006Z,41.35
2023-02-01T08:12:26.487Z,38.75
2023-02-01T08:15:29.881Z,40.03
2023-02-01T08:18:32.540Z,41.58
2023-02-01T08:21:37.981Z,43.75
2023-02-01T08:24:41.621Z,40.33
2023-02-01T08:27:44.116Z,38.67
2023-02-01T08:30:46.324Z,43.45
2023-02-01T08:33:53.809Z,41.88
2023-02-01T08:36:59.307Z,42.20
2023-02-01T08:40:01.563Z,45.47
2023-02-01T08:43:03.752Z,44.95
2023-02-01T08:46:06.787Z,43.85
2023-02-01T08:49:09.041Z,46.55
2023-02-01T08:52:15.999Z,45.08
2023-02-01T08:55:19.195Z,45.45
2023-02-01T08:58:22.815Z,47.08
2023-02-01T09:01:24.937Z,45.47
2023-02-01T09:04:27.061Z,42.88
2023-02-01T09:07:29.290Z,44.58
2023-02-01T09:10:35.127Z,46.03
2023-02-01T09:13:37.657Z,46.53
2023-02-01T09:16:40.108Z,41.83
2023-02-01T09:19:43.172Z,45.78
2023-02-01T09:22:45.412Z,44.30
2023-02-01T09:25:48.348Z,43.97
2023-02-01T09:28:50.565Z,45.33
2023-02-01T09:32:02.882Z,45.33
2023-02-01T09:35:06.242Z,44.47
2023-02-01T09:38:08.423Z,45.45
2023-02-01T09:41:40.287Z,45.38
2023-02-01T09:44:54.381Z,45.47
2023-02-01T09:48:00.834Z,46.13
2023-02-01T09:51:07.794Z,45.50
2023-02-01T09:54:30.942Z,46.22
2023-02-01T09:57:45.507Z,48.35
2023-02-01T10:01:00.248Z,43.97
2023-02-01T10:04:12.628Z,44.90
2023-02-01T10:07:23.563Z,46.33
2023-02-01T10:10:48.865Z,46.80
2023-02-01T10:14:22.808Z,43.72
2023-02-01T10:17:36.682Z,44.38
2023-02-01T10:21:14.343Z,46.30
2023-02-01T10:24:43.175Z,44.97
2023-02-01T10:27:45.535Z,43.13
2023-02-01T10:30:49.820Z,48.92
2023-02-01T10:34:07.762Z,48.25
2023-02-01T10:37:20.609Z,48.05
2023-02-01T10:40:26.257Z,46.22
2023-02-01T10:43:29.065Z,47.33
2023-02-01T10:46:32.916Z,48.15
2023-02-01T10:49:46.876Z,46.78
2023-02-01T10:52:58.117Z,47.60
2023-02-01T10:56:08.206Z,45.85
2023-02-01T10:59:17.992Z,46.17
2023-02-01T11:02:51.460Z,46.80
2023-02-01T11:05:56.457Z,45.78
2023-02-01T11:09:09.443Z,45.38
2023-02-01T11:12:39.794Z,47.67
2023-02-01T11:15:46.602Z,45.67
2023-02-01T11:18:55.864Z,44.22
2023-02-01T11:22:02.051Z,43.90
2023-02-01T11:25:12.016Z,45.65
2023-02-01T11:28:15.732Z,47.05
2023-02-01T11:31:18.335Z,43.97
2023-02-01T11:34:26.249Z,44.08
2023-02-01T11:37:38.434Z,43.67
2023-02-01T11:40:40.674Z,47.22
2023-02-01T11:43:57.949Z,44.97
2023-02-01T11:47:25.902Z,43.75
2023-02-01T11:50:40.723Z,40.00
2023-02-01T11:54:27.245Z,43.63
2023-02-01T11:58:00.180Z,40.67
2023-02-01T12:01:24.111Z,43.20
2023-02-01T12:04:44.315Z,45.72
2023-02-01T12:08:14.328Z,38.45
2023-02-01T12:11:24.537Z,42.28
2023-02-01T12:14:42.972Z,42.65
2023-02-01T12:18:03.696Z,44.63
2023-02-01T12:21:29.544Z,42.08
2023-02-01T12:24:31.846Z,43.17
2023-02-01T12:27:56.249Z,40.85
2023-02-01T12:31:06.532Z,43.42
2023-02-01T12:37:32.549Z,40.10
2023-02-01T12:40:57.648Z,42.60
2023-02-01T12:44:26.770Z,44.42
2023-02-01T12:47:40.936Z,44.13
2023-02-01T12:50:46.097Z,38.38
2023-02-01T12:54:01.907Z,44.05
2023-02-01T12:57:11.970Z,42.30
2023-02-01T13:00:52.852Z,40.85
2023-02-01T13:04:20.036Z,38.47
2023-02-01T13:08:03.455Z,40.83
2023-02-01T13:11:16.457Z,40.80
2023-02-01T13:14:34.987Z,39.95
2023-02-01T13:17:38.300Z,40.50
2023-02-01T13:20:51.534Z,42.28
2023-02-01T13:23:54.281Z,43.22
2023-02-01T13:26:56.807Z,42.42
2023-02-01T13:30:15.639Z,38.70
2023-02-01T13:33:53.932Z,35.63
2023-02-01T13:37:11.145Z,42.53
2023-02-01T13:40:44.097Z,41.35
2023-02-01T13:43:50.982Z,37.50
2023-02-01T13:46:57.680Z,43.47
2023-02-01T13:50:13.433Z,38.70
2023-02-01T13:53:21.839Z,40.58
2023-02-01T13:56:26.441Z,41.08
2023-02-01T13:59:49.453Z,41.42
2023-02-01T14:03:00.484Z,39.65
2023-02-01T14:06:04.788Z,40.80
2023-02-01T14:09:14.994Z,40.60
2023-02-01T14:12:50.422Z,39.50
2023-02-01T14:16:04.804Z,38.47
2023-02-01T14:19:20.164Z,41.67
2023-02-01T14:22:22.356Z,37.20
2023-02-01T14:25:25.503Z,38.72
2023-02-01T14:28:30.767Z,38.75
2023-02-01T14:31:48.211Z,37.45
2023-02-01T14:34:55.641Z,38.58
2023-02-01T14:38:05.541Z,39.42
2023-02-01T14:41:33.500Z,35.97
2023-02-01T14:44:38.077Z,37.90
2023-02-01T14:47:40.930Z,38.45
2023-02-01T14:50:47.598Z,37.83
2023-02-01T14:53:52.214Z,35.05
2023-02-01T14:56:56.106Z,34.72
2023-02-01T15:00:26.467Z,37.63
2023-02-01T15:07:13.097Z,30.55
2023-02-01T15:10:15.739Z,33.22
2023-02-01T15:13:26.492Z,36.28
2023-02-01T15:16:28.839Z,36.00
2023-02-01T15:19:34.368Z,36.63
2023-02-01T15:22:37.003Z,34.67
2023-02-01T15:25:40.101Z,34.08
2023-02-01T15:28:42.251Z,32.80
2023-02-01T15:31:47.730Z,34.13
2023-02-01T15:34:51.150Z,33.30
2023-02-01T15:37:53.867Z,34.78
2023-02-01T15:40:56.066Z,31.25
2023-02-01T15:44:02.533Z,32.05
2023-02-01T15:47:21.180Z,32.53
2023-02-01T15:50:25.335Z,34.33
2023-02-01T15:53:32.039Z,34.53
2023-02-01T15:56:40.470Z,33.17
2023-02-01T15:59:45.889Z,30.80
2023-02-01T16:02:55.795Z,31.83
2023-02-01T16:06:02.486Z,32.15
2023-02-01T16:09:13.615Z,30.08
2023-02-01T16:12:32.932Z,30.90
2023-02-01T16:15:35.132Z,31.45
2023-02-01T16:18:37.299Z,30.60
2023-02-01T16:21:39.550Z,24.88
2023-02-01T16:24:41.810Z,26.30
2023-02-01T16:27:43.986Z,27.15
2023-02-01T16:30:46.244Z,28.38
2023-02-01T16:33:51.022Z,25.55
2023-02-01T16:36:54.589Z,28.30
2023-02-01T16:39:56.777Z,27.77
2023-02-01T16:42:59.619Z,27.50
2023-02-01T16:46:04.472Z,28.02
2023-02-01T16:49:07.028Z,28.63
2023-02-01T16:52:20.887Z,28.33
2023-02-01T16:55:23.938Z,29.08
2023-02-01T16:58:27.802Z,28.85
2023-02-01T17:01:29.982Z,29.17
2023-02-01T17:04:32.270Z,27.45
2023-02-01T17:07:34.800Z,29.23
2023-02-01T17:10:36.991Z,29.73
2023-02-01T17:13:39.459Z,28.17
2023-02-01T17:16:42.282Z,28.33
2023-02-01T17:19:53.016Z,31.15
2023-02-01T17:22:55.143Z,30.30
2023-02-01T17:25:58.128Z,33.17
2023-02-01T17:29:04.264Z,31.40
2023-02-01T17:32:06.848Z,31.25
2023-02-01T17:35:31.302Z,32.47
2023-02-01T17:38:37.031Z,31.00
2023-02-01T17:41:39.196Z,34.70
2023-02-01T17:44:41.477Z,33.42
2023-02-01T17:47:43.699Z,35.00
2023-02-01T17:50:47.738Z,31.73
2023-02-01T17:53:50.043Z,32.90
2023-02-01T17:56:52.215Z,31.85
2023-02-01T17:59:54.368Z,32.47
2023-02-01T18:02:57.331Z,30.15
2023-02-01T18:05:59.767Z,37.83
2023-02-01T18:09:01.980Z,38.17
2023-02-01T18:12:13.856Z,41.42
2023-02-01T18:15:20.506Z,44.38
2023-02-01T18:18:22.888Z,49.65
2023-02-01T18:21:32.834Z,58.60
2023-02-01T18:24:34.986Z,56.30
2023-02-01T18:27:37.059Z,55.67
2023-02-01T18:30:39.328Z,55.22
2023-02-01T18:33:41.539Z,55.03
2023-02-01T18:36:43.816Z,51.88
2023-02-01T18:39:45.981Z,53.97
2023-02-01T18:42:48.775Z,52.72
2023-02-01T18:45:51.235Z,52.17
2023-02-01T18:48:54.598Z,52.55
2023-02-01T18:51:56.740Z,50.17
2023-02-01T18:55:00.233Z,50.05
2023-02-01T18:58:04.847Z,56.10
2023-02-01T19:01:09.452Z,56.40
2023-02-01T19:04:23.762Z,58.40
2023-02-01T19:07:29.271Z,57.35
2023-02-01T19:10:31.813Z,57.90
2023-02-01T19:13:34.063Z,57.85
2023-02-01T19:16:40.052Z,54.17
2023-02-01T19:19:42.374Z,56.97
2023-02-01T19:22:45.009Z,81.63
2023-02-01T19:25:49.061Z,87.93
2023-02-01T19:28:51.619Z,84.18
2023-02-01T19:31:53.814Z,78.75
2023-02-01T19:34:56.767Z,76.80
2023-02-01T19:37:59.253Z,71.88
2023-02-01T19:41:01.803Z,70.82
2023-02-01T19:44:04.534Z,70.75
2023-02-01T19:47:06.876Z,63.83
2023-02-01T19:50:16.807Z,67.22
2023-02-01T19:53:19.711Z,61.92
2023-02-01T19:56:21.797Z,58.45
2023-02-01T19:59:24.472Z,58.78
2023-02-01T20:02:28.733Z,56.78
2023-02-01T20:05:31.135Z,56.70
2023-02-01T20:08:33.441Z,54.78
2023-02-01T20:11:35.597Z,50.15
2023-02-01T20:14:38.986Z,52.88
2023-02-01T20:17:41.317Z,57.45
2023-02-01T20:20:43.485Z,52.92
2023-02-01T20:23:48.365Z,55.70
2023-02-01T20:26:51.428Z,53.30
2023-02-01T20:29:53.761Z,52.63
2023-02-01T20:32:55.937Z,49.90
2023-02-01T20:35:58.496Z,47.72
2023-02-01T20:39:00.779Z,48.90
2023-02-01T20:42:03.730Z,49.60
2023-02-01T20:45:06.276Z,52.63
2023-02-01T20:48:09.252Z,51.15
2023-02-01T20:51:12.985Z,46.00
2023-02-01T20:54:16.547Z,49.60
2023-02-01T20:57:19.519Z,48.40
2023-02-01T21:00:24.894Z,45.30
2023-02-01T21:03:27.647Z,47.25
2023-02-01T21:06:29.779Z,47.67
2023-02-01T21:09:32.015Z,47.50
2023-02-01T21:12:34.799Z,44.40
2023-02-01T21:15:37.439Z,46.70
2023-02-01T21:18:40.101Z,46.88
2023-02-01T21:21:42.447Z,48.03
2023-02-01T21:24:44.752Z,45.33
2023-02-01T21:27:47.043Z,44.67
2023-02-01T21:30:49.307Z,46.85
2023-02-01T21:33:52.083Z,42.80
2023-02-01T21:36:54.422Z,45.40
2023-02-01T21:39:56.655Z,41.72
2023-02-01T21:42:58.865Z,45.03
2023-02-01T21:46:01.084Z,43.70
2023-02-01T21:49:05.369Z,43.90
2023-02-01T21:52:09.230Z,46.20
2023-02-01T21:55:12.291Z,43.63
2023-02-01T21:58:14.564Z,44.53
2023-02-01T22:01:16.904Z,44.20
2023-02-01T22:04:19.190Z,46.28
2023-02-01T22:07:21.322Z,43.45
2023-02-01T22:10:24.318Z,39.05
2023-02-01T22:13:27.227Z,43.70
2023-02-01T22:16:31.432Z,45.47
2023-02-01T22:19:34.021Z,44.42
2023-02-01T22:22:36.193Z,45.65
2023-02-01T22:25:38.452Z,46.80
2023-02-01T22:28:40.732Z,41.53
2023-02-01T22:31:43.352Z,45.17
2023-02-01T22:34:45.566Z,49.00
2023-02-01T22:37:47.783Z,44.22
2023-02-01T22:41:01.114Z,47.00
2023-02-01T22:44:03.386Z,44.75
2023-02-01T22:47:05.619Z,43.53
2023-02-01T22:50:08.491Z,47.30
2023-02-01T22:53:11.229Z,45.20
2023-02-01T22:56:14.788Z,49.33
2023-02-01T22:59:17.127Z,49.65
2023-02-01T23:02:19.327Z,44.50
2023-02-01T23:05:22.215Z,48.13
2023-02-01T23:08:24.577Z,44.88
2023-02-01T23:11:28.165Z,47.90
2023-02-01T23:14:30.352Z,46.17
2023-02-01T23:17:33.693Z,50.53
2023-02-01T23:20:35.889Z,48.65
2023-02-01T23:23:38.340Z,49.83
2023-02-01T23:26:40.975Z,46.05
2023-02-01T23:29:43.209Z,48.70
2023-02-01T23:32:45.474Z,45.03
2023-02-01T23:35:58.630Z,46.67
2023-02-01T23:39:00.985Z,47.67
2023-02-01T23:42:05.041Z,46.97
2023-02-01T23:45:07.594Z,50.03
2023-02-01T23:48:09.708Z,49.42
2023-02-01T23:51:13.174Z,52.92
2023-02-01T23:54:15.472Z,52.63
2023-02-01T23:57:17.634Z,52.00
